Time;durP1;ratioP1;P1;durP2;ratioP2;P2;SDS_P1;SDS_P2;PMS_P1;PMS_P2;Temp;Humidity;BMP_temperature;BMP_pressure;BME280_temperature;BME280_humidity;BME280_pressure;Samples;Min_cycle;Max_cycle;Signal;HPM_P1;HPM_P2
2023/10/18 00:00:59;;;;;;;34.15;17.02;;;0.60;99.90;;;;;;5053787;28;20103;-78
2023/10/18 00:03:29;;;;;;;31.55;16.42;;;0.60;99.90;;;;;;5054391;28;20044;-77
2023/10/18 00:05:59;;;;;;;28.95;18.00;;;0.50;99.90;;;;;;5070538;28;20040;-77
2023/10/18 00:08:24;;;;;;;32.50;17.90;;;0.50;99.90;;;;;;5061699;28;20048;-78
2023/10/18 00:10:53;;;;;;;32.38;17.35;;;0.60;99.90;;;;;;5053694;28;20056;-76
2023/10/18 00:13:23;;;;;;;33.28;17.95;;;0.50;99.90;;;;;;5043663;28;20106;-76
2023/10/18 00:15:52;;;;;;;29.73;16.05;;;0.50;99.90;;;;;;5053407;28;20017;-76
2023/10/18 00:18:20;;;;;;;29.73;15.45;;;0.40;99.90;;;;;;5053446;28;20029;-76
2023/10/18 00:20:45;;;;;;;29.58;16.58;;;0.40;99.90;;;;;;5051788;28;20501;-77
2023/10/18 00:23:11;;;;;;;31.38;16.00;;;0.40;99.90;;;;;;5063651;28;20028;-78
2023/10/18 00:25:37;;;;;;;28.20;15.48;;;0.30;99.90;;;;;;5045165;28;20025;-77
2023/10/18 00:28:08;;;;;;;27.15;14.23;;;0.30;99.90;;;;;;5052414;28;20066;-76
2023/10/18 00:30:35;;;;;;;23.30;13.15;;;0.30;99.90;;;;;;5055540;28;20017;-76
2023/10/18 00:33:01;;;;;;;27.27;15.00;;;0.30;99.90;;;;;;5057938;28;20486;-76
2023/10/18 00:35:36;;;;;;;28.95;15.85;;;0.30;99.90;;;;;;5053032;28;20102;-76
2023/10/18 00:38:03;;;;;;;20.42;13.45;;;0.20;99.90;;;;;;5052876;28;20048;-78
2023/10/18 00:43:21;;;;;;;25.70;13.88;;;0.20;99.90;;;;;;5052057;28;20029;-76
2023/10/18 00:45:50;;;;;;;25.77;14.00;;;0.20;99.90;;;;;;5056033;28;20048;-77
2023/10/18 00:48:17;;;;;;;28.30;14.32;;;0.10;99.90;;;;;;5051858;28;20041;-77
2023/10/18 00:50:43;;;;;;;27.45;16.13;;;0.10;99.90;;;;;;5057697;28;20025;-77
2023/10/18 00:53:19;;;;;;;28.02;14.63;;;0.10;99.90;;;;;;5051409;28;20048;-78
2023/10/18 00:56:04;;;;;;;26.88;15.63;;;0.00;99.90;;;;;;5052822;28;20048;-78
2023/10/18 00:58:34;;;;;;;26.50;14.35;;;0.00;99.90;;;;;;5051680;28;20020;-78
2023/10/18 01:01:08;;;;;;;26.60;13.93;;;0.10;99.90;;;;;;5057243;28;20489;-78
2023/10/18 01:03:38;;;;;;;27.15;13.85;;;0.00;99.90;;;;;;5053125;28;20159;-78
2023/10/18 01:06:12;;;;;;;29.17;14.48;;;0.00;99.90;;;;;;5053726;28;20037;-77
2023/10/18 01:08:38;;;;;;;27.70;14.38;;;0.00;99.90;;;;;;5061508;28;20382;-77
2023/10/18 01:11:18;;;;;;;25.75;14.73;;;0.00;99.90;;;;;;5052623;28;20029;-77
2023/10/18 01:13:47;;;;;;;33.20;18.90;;;-0.10;99.90;;;;;;5052726;28;20130;-76
2023/10/18 01:16:20;;;;;;;35.05;18.55;;;-0.10;99.90;;;;;;5052537;28;20052;-77
2023/10/18 01:18:47;;;;;;;34.83;18.95;;;-0.20;99.90;;;;;;5055427;28;20407;-77
2023/10/18 01:21:17;;;;;;;30.52;17.48;;;-0.20;99.90;;;;;;5052211;28;20025;-77
2023/10/18 01:23:49;;;;;;;35.30;17.15;;;-0.30;99.90;;;;;;5051129;28;20112;-77
2023/10/18 01:26:15;;;;;;;30.90;17.40;;;-0.30;99.90;;;;;;5056346;28;20078;-76
2023/10/18 01:28:41;;;;;;;29.25;15.07;;;-0.30;99.90;;;;;;5064207;28;20028;-77
2023/10/18 01:31:07;;;;;;;29.73;16.17;;;-0.30;99.90;;;;;;5047541;28;20068;-76
2023/10/18 01:33:35;;;;;;;26.52;15.73;;;-0.30;99.90;;;;;;5059656;28;20036;-76
2023/10/18 01:36:00;;;;;;;22.75;14.07;;;-0.30;99.90;;;;;;5055598;28;20033;-78
2023/10/18 01:38:30;;;;;;;31.00;16.35;;;-0.30;99.90;;;;;;5051893;28;20067;-77
2023/10/18 01:40:58;;;;;;;27.33;14.48;;;-0.40;99.90;;;;;;5041747;28;20021;-76
2023/10/18 01:43:32;;;;;;;30.88;15.40;;;-0.40;99.90;;;;;;5044455;28;20064;-76
2023/10/18 01:45:58;;;;;;;28.15;14.93;;;-0.40;99.90;;;;;;5043865;28;20062;-76
2023/10/18 01:48:25;;;;;;;30.33;14.10;;;-0.40;99.90;;;;;;5052940;28;20049;-76
2023/10/18 01:50:50;;;;;;;28.55;14.13;;;-0.40;99.90;;;;;;5054797;28;20013;-76
2023/10/18 01:53:16;;;;;;;28.10;13.95;;;-0.40;99.90;;;;;;5054655;28;20032;-76
2023/10/18 01:55:52;;;;;;;23.40;13.13;;;-0.50;99.90;;;;;;5058400;28;20013;-77
2023/10/18 01:58:23;;;;;;;25.63;14.20;;;-0.40;99.90;;;;;;5055836;28;20063;-76
2023/10/18 02:00:49;;;;;;;26.80;14.40;;;-0.50;99.90;;;;;;5054466;28;20077;-78
2023/10/18 02:03:15;;;;;;;27.45;14.63;;;-0.50;99.90;;;;;;5055901;28;20021;-77
2023/10/18 02:05:44;;;;;;;23.73;14.63;;;-0.50;99.90;;;;;;5065550;28;20013;-77
2023/10/18 02:08:11;;;;;;;29.13;14.98;;;-0.50;99.90;;;;;;5055643;28;20364;-76
2023/10/18 02:10:40;;;;;;;27.85;14.10;;;-0.50;99.90;;;;;;5054897;28;20029;-75
2023/10/18 02:13:08;;;;;;;28.48;14.70;;;-0.50;99.90;;;;;;5058820;28;20105;-76
2023/10/18 02:15:40;;;;;;;30.52;15.02;;;-0.60;99.90;;;;;;5055576;28;20048;-77
2023/10/18 02:18:10;;;;;;;25.35;14.95;;;-0.60;99.90;;;;;;5051006;28;20029;-76
2023/10/18 02:20:39;;;;;;;30.35;14.60;;;-0.60;99.90;;;;;;5054434;28;20029;-77
2023/10/18 02:23:11;;;;;;;26.38;13.57;;;-0.70;99.90;;;;;;5055248;28;20021;-77
2023/10/18 02:25:44;;;;;;;29.98;14.75;;;-0.70;99.90;;;;;;5055506;28;20027;-76
2023/10/18 02:28:23;;;;;;;24.17;13.70;;;-0.70;99.90;;;;;;5053920;28;20021;-75
2023/10/18 02:31:23;;;;;;;25.63;13.32;;;-0.70;99.90;;;;;;5055612;28;20021;-76
2023/10/18 02:33:42;;;;;;;21.52;13.98;;;-0.70;99.90;;;;;;5052439;28;20068;-77
2023/10/18 02:36:12;;;;;;;32.08;15.35;;;-0.80;99.90;;;;;;5052663;28;20113;-76
2023/10/18 02:38:40;;;;;;;25.83;15.65;;;-0.80;99.90;;;;;;5056776;28;20051;-77
2023/10/18 02:41:15;;;;;;;30.00;16.45;;;-0.80;99.90;;;;;;5055513;28;20017;-77
2023/10/18 02:43:50;;;;;;;28.13;15.73;;;-0.80;99.90;;;;;;5055045;28;20475;-76
2023/10/18 02:46:20;;;;;;;28.27;15.68;;;-0.80;99.90;;;;;;5057734;28;20028;-76
2023/10/18 02:48:47;;;;;;;26.77;15.13;;;-0.80;99.90;;;;;;5055166;28;20025;-77
2023/10/18 02:51:14;;;;;;;24.88;14.88;;;-0.90;99.90;;;;;;5053735;28;20367;-75
2023/10/18 02:53:43;;;;;;;28.88;14.50;;;-0.90;99.90;;;;;;5054796;28;20020;-77
2023/10/18 02:56:10;;;;;;;29.35;14.80;;;-0.90;99.90;;;;;;5055459;28;20391;-77
2023/10/18 02:58:38;;;;;;;30.38;16.05;;;-0.90;99.90;;;;;;5054279;28;20109;-76
2023/10/18 03:01:06;;;;;;;27.27;14.07;;;-0.90;99.90;;;;;;5053625;28;20473;-77
2023/10/18 03:03:33;;;;;;;29.63;15.52;;;-1.00;99.90;;;;;;5057692;28;20095;-76
2023/10/18 03:06:08;;;;;;;31.35;15.10;;;-1.00;99.90;;;;;;5054545;28;20017;-75
2023/10/18 03:08:33;;;;;;;27.58;14.80;;;-1.00;99.90;;;;;;5057307;28;20359;-76
2023/10/18 03:11:02;;;;;;;33.20;18.73;;;-1.00;99.90;;;;;;5053337;28;20031;-77
2023/10/18 03:13:28;;;;;;;37.88;20.13;;;-1.00;99.90;;;;;;5054226;28;20025;-76
2023/10/18 03:18:39;;;;;;;37.72;20.70;;;-1.10;99.90;;;;;;5053436;28;20108;-77
2023/10/18 03:21:06;;;;;;;37.60;21.17;;;-1.00;99.90;;;;;;5052962;28;20116;-76
2023/10/18 03:23:32;;;;;;;33.40;17.65;;;-1.10;99.90;;;;;;5054391;28;20025;-77
2023/10/18 03:26:07;;;;;;;38.60;19.23;;;-1.10;99.90;;;;;;5061027;28;20023;-76
2023/10/18 03:28:34;;;;;;;37.67;19.00;;;-1.10;99.90;;;;;;5054637;28;20104;-76
2023/10/18 03:33:55;;;;;;;30.17;16.30;;;-1.10;99.90;;;;;;5054146;28;20040;-76
2023/10/18 03:36:21;;;;;;;35.30;17.95;;;-1.20;99.90;;;;;;5052965;28;20088;-76
2023/10/18 03:38:54;;;;;;;30.38;15.70;;;-1.20;99.90;;;;;;5055837;28;20028;-77
2023/10/18 03:41:23;;;;;;;30.58;15.20;;;-1.20;99.90;;;;;;5061562;28;20398;-77
2023/10/18 03:43:49;;;;;;;33.03;15.40;;;-1.30;99.90;;;;;;5060579;28;20013;-75
2023/10/18 03:46:29;;;;;;;34.20;17.55;;;-1.20;99.90;;;;;;5053969;28;20359;-77
2023/10/18 03:48:56;;;;;;;37.60;17.75;;;-1.30;99.90;;;;;;5058792;28;20037;-76
2023/10/18 03:51:25;;;;;;;38.30;20.88;;;-1.30;99.90;;;;;;5055793;28;20060;-77
2023/10/18 03:53:55;;;;;;;37.30;19.27;;;-1.30;99.90;;;;;;5060510;28;20021;-77
2023/10/18 03:56:24;;;;;;;50.63;24.15;;;-1.30;99.90;;;;;;5061373;28;20020;-75
2023/10/18 03:58:53;;;;;;;46.10;22.77;;;-1.40;99.90;;;;;;5049126;28;20395;-77
2023/10/18 04:01:21;;;;;;;53.60;24.13;;;-1.30;99.90;;;;;;5051653;28;20032;-76
2023/10/18 04:03:49;;;;;;;47.15;23.95;;;-1.30;99.90;;;;;;5052844;28;20021;-77
2023/10/18 04:06:21;;;;;;;48.03;22.33;;;-1.30;99.90;;;;;;5053532;28;20017;-76
2023/10/18 04:08:47;;;;;;;41.13;19.88;;;-1.30;99.90;;;;;;5057061;28;20099;-77
2023/10/18 04:11:13;;;;;;;36.38;21.00;;;-1.30;99.90;;;;;;5057149;28;20030;-78
2023/10/18 04:13:39;;;;;;;41.50;19.20;;;-1.30;99.90;;;;;;5052202;28;20462;-78
2023/10/18 04:16:10;;;;;;;35.03;18.27;;;-1.30;99.90;;;;;;5053284;28;20044;-78
2023/10/18 04:18:36;;;;;;;34.25;18.65;;;-1.30;99.90;;;;;;5052295;28;20025;-76
2023/10/18 04:21:52;;;;;;;33.58;19.50;;;-1.30;99.90;;;;;;5051993;28;20028;-78
2023/10/18 04:23:56;;;;;;;34.90;18.67;;;-1.40;99.90;;;;;;5052611;28;20498;-76
2023/10/18 04:26:25;;;;;;;38.72;19.13;;;-1.40;99.90;;;;;;5053576;28;20482;-77
2023/10/18 04:28:57;;;;;;;37.83;20.00;;;-1.40;99.90;;;;;;5053053;28;20095;-77
2023/10/18 04:31:23;;;;;;;41.20;20.10;;;-1.40;99.90;;;;;;5052913;28;20021;-76
2023/10/18 04:33:50;;;;;;;38.08;20.67;;;-1.40;99.90;;;;;;5051818;28;20067;-76
2023/10/18 04:36:18;;;;;;;43.35;21.90;;;-1.40;99.90;;;;;;5060383;28;20017;-78
2023/10/18 04:38:47;;;;;;;41.83;23.15;;;-1.40;99.90;;;;;;5053017;28;20021;-77
2023/10/18 04:43:52;;;;;;;35.50;18.50;;;-1.40;99.90;;;;;;5051950;28;20086;-76
2023/10/18 04:46:26;;;;;;;32.80;18.02;;;-1.50;99.90;;;;;;5052568;28;20027;-78
2023/10/18 04:51:33;;;;;;;37.05;19.58;;;-1.50;99.90;;;;;;5052899;28;20116;-76
2023/10/18 04:56:39;;;;;;;38.40;20.88;;;-1.60;99.90;;;;;;5046610;28;20107;-78
2023/10/18 04:59:14;;;;;;;40.05;21.98;;;-1.60;99.90;;;;;;5051798;28;20056;-77
2023/10/18 05:04:24;;;;;;;43.25;22.58;;;-1.60;99.90;;;;;;5049510;28;20475;-76
2023/10/18 05:06:58;;;;;;;47.58;22.85;;;-1.60;99.90;;;;;;5053462;28;20025;-78
2023/10/18 05:09:43;;;;;;;42.80;22.00;;;-1.60;99.90;;;;;;5058297;28;20029;-76
2023/10/18 05:17:28;;;;;;;47.45;24.02;;;-1.60;99.90;;;;;;5048535;28;20033;-77
2023/10/18 05:19:56;;;;;;;83.60;30.42;;;-1.60;99.90;;;;;;5051885;28;20021;-78
2023/10/18 05:22:28;;;;;;;86.68;33.60;;;-1.60;99.90;;;;;;5052097;28;20036;-77
2023/10/18 05:27:59;;;;;;;60.63;26.25;;;-1.70;99.90;;;;;;5038815;28;20103;-76
2023/10/18 05:43:58;;;;;;;57.90;25.52;;;-1.70;99.90;;;;;;5052247;28;20035;-77
2023/10/18 05:46:29;;;;;;;45.67;24.67;;;-1.60;99.90;;;;;;5038152;28;20095;-78
2023/10/18 05:49:00;;;;;;;51.35;23.30;;;-1.70;99.90;;;;;;5050240;28;20021;-76
2023/10/18 05:53:59;;;;;;;53.10;24.75;;;-1.60;99.90;;;;;;5052314;28;20022;-76
2023/10/18 05:56:31;;;;;;;51.53;23.45;;;-1.60;99.90;;;;;;5046618;28;20107;-77
2023/10/18 05:59:27;;;;;;;47.88;22.92;;;-1.50;99.90;;;;;;5044892;28;20025;-78
2023/10/18 06:01:47;;;;;;;48.13;22.55;;;-1.40;99.90;;;;;;5051687;28;20029;-78
2023/10/18 06:04:14;;;;;;;41.80;22.23;;;-1.40;99.90;;;;;;5040315;28;20125;-76
2023/10/18 06:06:40;;;;;;;49.00;25.25;;;-1.30;99.90;;;;;;5044331;28;20018;-76
2023/10/18 06:09:10;;;;;;;58.40;27.27;;;-1.20;99.90;;;;;;5040150;28;20040;-78
2023/10/18 06:11:38;;;;;;;48.22;22.88;;;-1.10;99.90;;;;;;5043313;28;20057;-78
2023/10/18 06:14:16;;;;;;;49.22;23.60;;;-1.00;99.90;;;;;;5062158;28;20032;-78
2023/10/18 06:16:42;;;;;;;50.88;22.60;;;-0.90;99.90;;;;;;5052361;28;20021;-76
2023/10/18 06:19:13;;;;;;;53.10;26.45;;;-0.80;99.90;;;;;;5049071;28;20107;-79
2023/10/18 06:21:49;;;;;;;56.70;27.25;;;-0.70;99.90;;;;;;5056403;28;20017;-76
2023/10/18 06:24:16;;;;;;;52.72;25.95;;;-0.50;99.90;;;;;;5056656;28;20061;-78
2023/10/18 06:26:44;;;;;;;52.92;26.13;;;-0.40;99.90;;;;;;5052843;28;20013;-76
2023/10/18 06:29:17;;;;;;;63.50;29.17;;;-0.20;99.90;;;;;;5049482;28;20037;-79
2023/10/18 06:31:43;;;;;;;78.32;34.35;;;-0.10;99.90;;;;;;5055173;28;20016;-76
2023/10/18 06:34:17;;;;;;;98.22;43.35;;;0.10;99.90;;;;;;5052230;28;20113;-76
2023/10/18 06:36:49;;;;;;;81.13;35.92;;;0.20;99.90;;;;;;5051674;28;20033;-77
2023/10/18 06:39:28;;;;;;;72.32;35.30;;;0.30;99.90;;;;;;5048455;28;20028;-76
2023/10/18 06:41:57;;;;;;;53.58;27.75;;;0.50;99.90;;;;;;5051619;28;20071;-76
2023/10/18 06:44:30;;;;;;;52.25;25.38;;;0.70;99.90;;;;;;5064424;28;20182;-78
2023/10/18 06:46:57;;;;;;;54.30;29.27;;;0.90;99.90;;;;;;5055235;28;20040;-79
2023/10/18 06:49:23;;;;;;;68.70;33.83;;;1.00;99.90;;;;;;5054169;28;20028;-78
2023/10/18 06:51:51;;;;;;;77.88;39.17;;;1.20;99.90;;;;;;5054743;28;20463;-76
2023/10/18 06:54:32;;;;;;;82.55;42.40;;;1.30;99.90;;;;;;5054348;28;20025;-76
2023/10/18 06:57:09;;;;;;;75.30;37.67;;;1.50;99.90;;;;;;5047917;28;20052;-78
2023/10/18 06:59:34;;;;;;;79.43;36.67;;;1.70;99.90;;;;;;5054146;28;20054;-76
2023/10/18 07:02:00;;;;;;;75.13;37.60;;;1.90;99.90;;;;;;5053456;28;20421;-76
2023/10/18 07:04:35;;;;;;;73.82;36.67;;;2.10;99.90;;;;;;5053030;28;20025;-76
2023/10/18 07:07:08;;;;;;;67.35;37.38;;;2.30;99.90;;;;;;5055237;28;20017;-78
2023/10/18 07:09:36;;;;;;;63.40;34.88;;;2.40;99.90;;;;;;5045746;28;20032;-76
2023/10/18 07:12:10;;;;;;;55.42;27.92;;;2.60;99.90;;;;;;5053074;28;20025;-76
2023/10/18 07:14:37;;;;;;;47.30;27.20;;;2.80;99.90;;;;;;5046259;28;20059;-77
2023/10/18 07:17:04;;;;;;;50.45;27.98;;;2.90;99.90;;;;;;5052910;28;20017;-76
2023/10/18 07:19:33;;;;;;;56.17;29.60;;;3.00;99.90;;;;;;5043128;28;20028;-79
2023/10/18 07:22:05;;;;;;;61.05;30.98;;;3.20;99.90;;;;;;5053358;28;20032;-77
2023/10/18 07:24:36;;;;;;;62.05;32.35;;;3.40;99.90;;;;;;5060135;28;20025;-76
2023/10/18 07:27:09;;;;;;;56.38;29.20;;;3.60;99.90;;;;;;5052615;28;20025;-78
2023/10/18 07:29:45;;;;;;;56.88;31.00;;;3.70;99.90;;;;;;5047181;28;20391;-77
2023/10/18 07:32:14;;;;;;;86.13;41.92;;;3.90;99.90;;;;;;5045627;28;20025;-77
2023/10/18 07:34:42;;;;;;;104.32;50.38;;;4.10;99.90;;;;;;5054177;28;20059;-79
2023/10/18 07:37:38;;;;;;;68.22;35.58;;;4.30;99.90;;;;;;5045587;28;20099;-77
2023/10/18 07:40:08;;;;;;;58.47;32.03;;;4.40;99.90;;;;;;5041954;28;20029;-76
2023/10/18 07:42:41;;;;;;;74.47;37.22;;;4.60;99.90;;;;;;5043308;28;20023;-77
2023/10/18 07:45:08;;;;;;;68.47;35.80;;;4.80;99.90;;;;;;5050362;28;20037;-76
2023/10/18 07:47:37;;;;;;;59.45;31.88;;;4.90;99.90;;;;;;5032629;28;20056;-79
2023/10/18 07:52:55;;;;;;;57.97;32.17;;;5.10;99.90;;;;;;5046909;28;20036;-80
2023/10/18 07:55:21;;;;;;;52.03;28.33;;;5.20;99.90;;;;;;5045122;28;20029;-80
2023/10/18 07:57:48;;;;;;;45.60;26.75;;;5.40;99.90;;;;;;5052374;28;20025;-77
2023/10/18 08:00:21;;;;;;;41.95;23.25;;;5.40;99.90;;;;;;5059941;28;20044;-80
2023/10/18 08:02:50;;;;;;;42.80;22.65;;;5.50;99.90;;;;;;5054687;28;20017;-76
2023/10/18 08:05:19;;;;;;;35.60;20.23;;;5.60;99.90;;;;;;5049404;28;20031;-79
2023/10/18 08:07:49;;;;;;;39.72;21.70;;;5.70;99.90;;;;;;5053592;28;20021;-80
2023/10/18 08:10:22;;;;;;;30.23;17.52;;;5.80;99.90;;;;;;5041989;28;20029;-80
2023/10/18 08:13:03;;;;;;;24.42;14.18;;;6.00;99.90;;;;;;5048071;28;20016;-80
2023/10/18 08:15:35;;;;;;;26.88;13.57;;;6.00;99.90;;;;;;5048488;28;20037;-79
2023/10/18 08:18:14;;;;;;;24.05;15.15;;;6.10;99.90;;;;;;5048969;28;20029;-80
2023/10/18 08:26:03;;;;;;;26.95;15.10;;;6.40;99.90;;;;;;5048964;28;20059;-76
2023/10/18 08:28:38;;;;;;;27.55;15.48;;;6.40;99.90;;;;;;5039296;28;20104;-76
2023/10/18 08:31:32;;;;;;;25.95;16.40;;;6.50;99.90;;;;;;5058272;28;20043;-76
2023/10/18 08:33:59;;;;;;;24.95;14.88;;;6.50;99.90;;;;;;5050903;28;20021;-76
2023/10/18 08:36:30;;;;;;;26.85;17.30;;;6.70;99.90;;;;;;5051510;28;20017;-76
2023/10/18 08:38:57;;;;;;;28.63;16.95;;;6.80;99.90;;;;;;5051214;28;20048;-76
2023/10/18 08:41:31;;;;;;;27.17;15.75;;;6.80;99.90;;;;;;5052363;28;20497;-76
2023/10/18 08:44:16;;;;;;;30.35;17.40;;;6.90;99.90;;;;;;5049182;28;20103;-76
2023/10/18 08:47:04;;;;;;;30.17;15.55;;;7.10;99.90;;;;;;5052438;28;20053;-76
2023/10/18 08:49:32;;;;;;;28.65;15.07;;;7.10;99.90;;;;;;5052539;28;20028;-76
2023/10/18 08:54:48;;;;;;;25.85;14.75;;;7.20;99.90;;;;;;5054986;28;20029;-77
2023/10/18 09:03:03;;;;;;;25.70;13.02;;;7.50;99.90;;;;;;5062274;28;20021;-77
2023/10/18 09:05:30;;;;;;;21.95;12.95;;;7.60;98.40;;;;;;5052702;28;20025;-80
2023/10/18 09:08:05;;;;;;;24.58;14.05;;;7.80;98.20;;;;;;5051396;28;20025;-78
2023/10/18 09:18:16;;;;;;;19.15;12.23;;;8.20;89.10;;;;;;5050828;28;20063;-79
2023/10/18 09:20:42;;;;;;;20.77;12.60;;;8.20;86.30;;;;;;5049014;28;20020;-81
2023/10/18 09:23:19;;;;;;;17.98;11.85;;;8.30;82.10;;;;;;5050471;28;20119;-77
2023/10/18 09:28:32;;;;;;;18.92;10.90;;;8.50;84.30;;;;;;5047587;28;20067;-77
2023/10/18 09:31:10;;;;;;;14.98;9.35;;;8.70;82.80;;;;;;5050663;28;20029;-77
2023/10/18 09:33:48;;;;;;;19.35;9.63;;;8.70;80.10;;;;;;5051490;28;20032;-77
2023/10/18 09:36:23;;;;;;;17.90;10.75;;;8.80;78.00;;;;;;5051189;28;20033;-80
2023/10/18 09:38:53;;;;;;;17.80;9.90;;;8.90;78.50;;;;;;5052270;28;20574;-77
2023/10/18 09:41:19;;;;;;;15.40;8.48;;;8.90;77.10;;;;;;5053882;28;20494;-80
2023/10/18 09:43:48;;;;;;;12.55;8.10;;;9.00;76.90;;;;;;5049950;28;20487;-80
2023/10/18 09:46:15;;;;;;;14.85;8.93;;;9.10;77.70;;;;;;5054730;28;20033;-77
2023/10/18 09:48:43;;;;;;;13.65;8.00;;;9.20;77.40;;;;;;5054656;28;20071;-77
2023/10/18 09:51:10;;;;;;;16.08;8.75;;;9.20;75.00;;;;;;5059104;28;20021;-80
2023/10/18 09:53:42;;;;;;;13.20;7.90;;;9.30;76.00;;;;;;5054804;28;20095;-80
2023/10/18 09:56:11;;;;;;;11.48;5.78;;;9.40;75.20;;;;;;5055109;28;20045;-78
2023/10/18 09:58:42;;;;;;;8.82;5.55;;;9.40;72.00;;;;;;5054399;28;20017;-80
2023/10/18 10:01:25;;;;;;;9.85;5.85;;;9.40;72.20;;;;;;5054726;28;20124;-77
2023/10/18 10:03:52;;;;;;;;;;;9.50;71.80;;;;;;5056451;28;20451;-77
2023/10/18 10:06:23;;;;;;;9.05;6.13;;;9.60;70.20;;;;;;5054388;28;19955;-80
2023/10/18 10:09:12;;;;;;;11.52;5.78;;;9.60;69.70;;;;;;5054711;28;20528;-77
2023/10/18 10:11:45;;;;;;;8.93;4.95;;;9.70;69.20;;;;;;5055918;28;20028;-80
2023/10/18 10:14:16;;;;;;;6.63;4.53;;;9.80;69.50;;;;;;5055727;28;20032;-80
2023/10/18 10:17:05;;;;;;;6.72;4.95;;;9.90;70.00;;;;;;5054413;28;20446;-77
2023/10/18 10:19:37;;;;;;;6.72;5.15;;;9.90;68.80;;;;;;5054330;28;20375;-77
2023/10/18 10:22:07;;;;;;;10.13;5.45;;;10.00;68.40;;;;;;5052390;28;20510;-77
2023/10/18 10:24:42;;;;;;;7.63;5.53;;;10.00;67.40;;;;;;5051765;28;20025;-80
2023/10/18 10:32:49;;;;;;;7.68;5.15;;;10.10;67.40;;;;;;5054848;28;20067;-80
2023/10/18 10:35:20;;;;;;;8.35;5.70;;;10.20;67.50;;;;;;5055537;28;20041;-80
2023/10/18 10:38:21;;;;;;;10.40;7.05;;;10.20;67.30;;;;;;5055188;28;20021;-80
2023/10/18 10:40:48;;;;;;;9.25;6.63;;;10.20;68.00;;;;;;5053746;28;20448;-80
2023/10/18 10:43:18;;;;;;;14.05;7.80;;;10.10;67.90;;;;;;5055283;28;20399;-80
2023/10/18 10:51:21;;;;;;;11.82;7.57;;;10.10;69.10;;;;;;5051675;28;20037;-77
2023/10/18 10:54:00;;;;;;;13.82;7.90;;;10.20;68.80;;;;;;5055151;28;20017;-81
2023/10/18 10:56:33;;;;;;;11.75;6.68;;;10.20;67.50;;;;;;5057502;28;20037;-81
2023/10/18 11:01:43;;;;;;;13.30;6.75;;;10.40;69.30;;;;;;5053696;28;19909;-80
2023/10/18 11:04:24;;;;;;;9.93;7.45;;;10.50;68.50;;;;;;5052075;28;20029;-77
2023/10/18 11:06:56;;;;;;;10.65;6.97;;;10.50;68.90;;;;;;5048486;28;20017;-77
2023/10/18 11:09:47;;;;;;;10.05;7.57;;;10.60;67.80;;;;;;5062628;28;20384;-77
2023/10/18 11:12:22;;;;;;;11.18;7.20;;;10.60;66.80;;;;;;5052848;28;20013;-76
2023/10/18 11:14:52;;;;;;;9.75;6.90;;;10.60;66.00;;;;;;5051504;28;20080;-77
2023/10/18 11:17:18;;;;;;;8.75;6.78;;;10.70;67.00;;;;;;5054366;28;20024;-76
2023/10/18 11:19:45;;;;;;;8.70;5.75;;;10.70;66.20;;;;;;5052597;28;20028;-77
2023/10/18 11:22:15;;;;;;;11.25;6.72;;;10.80;67.10;;;;;;5050551;28;20029;-77
2023/10/18 11:24:42;;;;;;;9.15;6.60;;;10.80;65.00;;;;;;5052365;28;20025;-77
2023/10/18 11:27:10;;;;;;;11.25;7.00;;;10.80;64.30;;;;;;5041510;28;20025;-77
2023/10/18 11:29:41;;;;;;;10.75;5.95;;;10.80;65.40;;;;;;5050259;28;20021;-77
2023/10/18 11:32:15;;;;;;;14.07;7.13;;;10.90;64.30;;;;;;5052654;28;20021;-77
2023/10/18 11:34:43;;;;;;;9.48;6.28;;;10.90;64.00;;;;;;5046157;28;20079;-77
2023/10/18 11:37:09;;;;;;;51.75;25.67;;;10.80;62.90;;;;;;5045853;28;20471;-76
2023/10/18 11:39:37;;;;;;;17.27;9.95;;;10.70;61.60;;;;;;5053142;28;20029;-76
2023/10/18 11:42:03;;;;;;;11.07;7.00;;;10.70;62.90;;;;;;5045795;28;20039;-76
2023/10/18 11:44:33;;;;;;;13.63;6.93;;;10.80;63.60;;;;;;5052023;28;20103;-75
2023/10/18 11:47:11;;;;;;;13.48;6.65;;;10.80;63.50;;;;;;5053814;28;20111;-76
2023/10/18 11:49:41;;;;;;;8.48;5.63;;;10.80;64.30;;;;;;5052284;28;20025;-76
2023/10/18 11:52:21;;;;;;;10.40;6.20;;;10.80;62.70;;;;;;5038022;28;20025;-76
2023/10/18 11:54:54;;;;;;;16.73;11.38;;;10.80;63.00;;;;;;5038188;28;20041;-76
2023/10/18 11:57:35;;;;;;;11.65;6.80;;;10.80;61.90;;;;;;5034680;28;20029;-76
2023/10/18 12:02:45;;;;;;;11.52;6.78;;;10.80;62.40;;;;;;5045443;28;20059;-80
2023/10/18 12:05:15;;;;;;;11.70;9.40;;;10.80;62.70;;;;;;5051002;28;20032;-80
2023/10/18 12:07:48;;;;;;;19.45;12.40;;;10.90;62.20;;;;;;5037939;28;20474;-79
2023/10/18 12:10:25;;;;;;;12.07;7.93;;;10.80;61.40;;;;;;5041409;28;20473;-80
2023/10/18 12:12:55;;;;;;;13.23;8.55;;;10.80;62.60;;;;;;5048498;28;20467;-81
2023/10/18 12:15:25;;;;;;;13.45;8.63;;;10.90;62.30;;;;;;5044006;28;20599;-80
2023/10/18 12:17:52;;;;;;;18.02;10.77;;;10.80;61.70;;;;;;5049745;28;20021;-80
2023/10/18 12:20:25;;;;;;;14.63;9.40;;;10.90;62.30;;;;;;5046743;28;20061;-80
2023/10/18 12:22:51;;;;;;;22.58;12.40;;;10.90;62.00;;;;;;5039779;28;20021;-80
2023/10/18 12:25:20;;;;;;;15.63;8.35;;;10.90;62.30;;;;;;5053240;28;20104;-80
2023/10/18 12:27:52;;;;;;;12.00;6.88;;;10.90;62.20;;;;;;5052808;28;20091;-80
2023/10/18 12:30:27;;;;;;;9.13;6.32;;;10.90;62.10;;;;;;5053187;28;20343;-80
2023/10/18 12:32:53;;;;;;;10.30;6.72;;;10.90;63.00;;;;;;5048526;28;20017;-81
2023/10/18 12:35:20;;;;;;;14.15;9.27;;;11.00;62.90;;;;;;5045644;28;20581;-82
2023/10/18 12:37:46;;;;;;;12.75;8.52;;;11.00;61.40;;;;;;5052577;28;20017;-81
2023/10/18 12:40:28;;;;;;;12.90;7.47;;;11.00;62.20;;;;;;5053307;28;20021;-80
2023/10/18 12:43:00;;;;;;;11.68;6.95;;;11.00;61.80;;;;;;5047874;28;20032;-80
2023/10/18 12:45:29;;;;;;;9.05;6.70;;;11.00;61.70;;;;;;5047596;28;20120;-80
2023/10/18 12:47:55;;;;;;;10.43;7.07;;;11.00;60.90;;;;;;5053512;28;20033;-81
2023/10/18 12:50:26;;;;;;;10.13;7.53;;;11.00;60.70;;;;;;5050067;28;20017;-81
2023/10/18 12:52:56;;;;;;;16.60;9.60;;;11.00;59.70;;;;;;5034125;28;20025;-82
2023/10/18 12:57:54;;;;;;;16.27;8.52;;;11.00;60.30;;;;;;5043715;28;20087;-81
2023/10/18 13:00:25;;;;;;;16.17;7.70;;;11.10;60.50;;;;;;5058120;28;20028;-81
2023/10/18 13:05:18;;;;;;;13.23;9.40;;;11.00;60.10;;;;;;5034075;28;20079;-80
2023/10/18 13:07:44;;;;;;;13.02;8.55;;;11.10;61.50;;;;;;5032758;28;20021;-80
2023/10/18 13:10:11;;;;;;;16.77;8.75;;;11.10;61.00;;;;;;5038961;28;20021;-80
2023/10/18 13:12:43;;;;;;;14.15;10.73;;;11.10;60.90;;;;;;5039191;28;20033;-81
2023/10/18 13:15:10;;;;;;;14.25;9.23;;;11.10;61.10;;;;;;5034028;28;20403;-81
2023/10/18 13:17:36;;;;;;;13.45;8.07;;;11.10;60.80;;;;;;5048483;28;20379;-81
2023/10/18 13:20:06;;;;;;;14.70;9.45;;;11.10;61.30;;;;;;5042769;28;20041;-80
2023/10/18 13:22:34;;;;;;;16.30;9.68;;;11.10;60.80;;;;;;5050302;28;20029;-81
2023/10/18 13:25:07;;;;;;;13.70;8.35;;;11.00;60.50;;;;;;5038758;28;20415;-81
2023/10/18 13:27:37;;;;;;;12.23;8.50;;;11.00;60.20;;;;;;5045062;28;20126;-82
2023/10/18 13:30:12;;;;;;;12.20;7.97;;;11.00;60.40;;;;;;5052946;28;20040;-81
2023/10/18 13:32:40;;;;;;;14.93;8.10;;;11.00;60.50;;;;;;5036873;28;20028;-77
2023/10/18 13:35:14;;;;;;;14.13;7.38;;;11.00;62.10;;;;;;5040559;28;20044;-77
2023/10/18 13:37:43;;;;;;;12.93;7.82;;;11.00;61.30;;;;;;5040836;28;20546;-81
2023/10/18 13:40:18;;;;;;;12.20;7.32;;;11.10;61.30;;;;;;5050951;28;20363;-81
2023/10/18 13:42:50;;;;;;;14.00;7.82;;;11.00;60.20;;;;;;5050597;28;20474;-77
2023/10/18 13:45:16;;;;;;;11.45;7.35;;;11.00;60.90;;;;;;5041891;28;20075;-81
2023/10/18 13:47:42;;;;;;;13.73;8.07;;;11.00;60.70;;;;;;5046678;28;20376;-77
2023/10/18 13:50:11;;;;;;;11.88;7.10;;;11.00;60.60;;;;;;5036081;28;20037;-81
2023/10/18 13:52:41;;;;;;;12.02;6.90;;;11.00;60.80;;;;;;5040242;28;20100;-81
2023/10/18 13:55:08;;;;;;;12.85;7.47;;;10.90;61.70;;;;;;5046536;28;20025;-77
2023/10/18 13:57:35;;;;;;;13.57;7.53;;;11.00;63.00;;;;;;5033046;28;20025;-76
2023/10/18 14:00:06;;;;;;;18.98;9.43;;;11.00;62.70;;;;;;5035229;28;20017;-81
2023/10/18 14:02:36;;;;;;;15.57;7.90;;;10.90;62.20;;;;;;5032946;28;20068;-82
2023/10/18 14:05:07;;;;;;;12.52;6.95;;;10.90;62.90;;;;;;5045152;28;20053;-82
2023/10/18 14:07:36;;;;;;;13.05;7.63;;;10.90;62.60;;;;;;5050713;28;20509;-82
2023/10/18 14:10:27;;;;;;;22.00;12.82;;;10.90;61.90;;;;;;5050545;28;20036;-81
2023/10/18 14:12:53;;;;;;;12.15;8.50;;;10.90;62.90;;;;;;5045896;28;20422;-77
2023/10/18 14:15:25;;;;;;;29.20;13.73;;;10.90;62.90;;;;;;5050556;28;20037;-77
2023/10/18 14:17:54;;;;;;;10.90;7.35;;;10.90;63.50;;;;;;5050524;28;20049;-78
2023/10/18 14:20:30;;;;;;;15.48;7.90;;;10.90;64.10;;;;;;5047953;28;20033;-77
2023/10/18 14:22:56;;;;;;;14.20;8.68;;;10.80;64.60;;;;;;5042309;28;20047;-77
2023/10/18 14:25:26;;;;;;;15.05;8.02;;;10.80;63.60;;;;;;5040943;28;20097;-77